Time;durP1;ratioP1;P1;durP2;ratioP2;P2;SDS_P1;SDS_P2;PMS_P1;PMS_P2;Temp;Humidity;BMP_temperature;BMP_pressure;BME280_temperature;BME280_humidity;BME280_pressure;Samples;Min_cycle;Max_cycle;Signal;HPM_P1;HPM_P2
2022/08/24 00:00:16;;;;;;;7.82;6.45;;;;;;;18.66;100.00;94237.59;5052586;28;20309;-60
2022/08/24 00:02:42;;;;;;;22.25;7.75;;;;;;;18.72;100.00;94236.84;5052580;28;20178;-61
2022/08/24 00:05:09;;;;;;;15.90;7.38;;;;;;;18.58;100.00;94237.75;5052631;28;20210;-61
2022/08/24 00:07:35;;;;;;;9.45;7.45;;;;;;;18.49;100.00;94230.31;5052419;28;20189;-61
2022/08/24 00:10:01;;;;;;;13.82;7.43;;;;;;;18.49;100.00;94236.28;5051476;28;20217;-60
2022/08/24 00:12:31;;;;;;;13.88;6.97;;;;;;;18.52;100.00;94229.97;5034796;28;20204;-61
2022/08/24 00:14:57;;;;;;;11.38;7.40;;;;;;;18.58;100.00;94235.16;5034392;28;20217;-61
2022/08/24 00:17:23;;;;;;;11.50;6.95;;;;;;;18.59;100.00;94241.88;5052411;28;20186;-62
2022/08/24 00:19:48;;;;;;;7.85;7.10;;;;;;;18.81;100.00;94245.19;5052025;28;20223;-61
2022/08/24 00:22:14;;;;;;;9.88;7.70;;;;;;;18.76;100.00;94248.34;5052422;28;20224;-62
2022/08/24 00:24:39;;;;;;;9.70;6.82;;;;;;;18.70;100.00;94248.31;5052740;28;20218;-61
2022/08/24 00:27:06;;;;;;;12.27;7.88;;;;;;;18.44;100.00;94254.06;5052070;28;20186;-62
2022/08/24 00:29:33;;;;;;;12.07;7.75;;;;;;;18.35;100.00;94268.81;5052201;28;20709;-62
2022/08/24 00:31:58;;;;;;;13.32;7.65;;;;;;;18.55;100.00;94268.19;5052133;28;20197;-62
2022/08/24 00:34:25;;;;;;;10.85;7.65;;;;;;;18.68;100.00;94265.72;5034247;28;20210;-61
2022/08/24 00:36:51;;;;;;;10.57;7.57;;;;;;;18.54;100.00;94274.34;5034030;28;20282;-61
2022/08/24 00:39:16;;;;;;;10.85;8.00;;;;;;;18.46;100.00;94277.06;5033875;28;20706;-61
2022/08/24 00:41:44;;;;;;;9.73;7.35;;;;;;;18.53;100.00;94276.09;5051957;28;20186;-64
2022/08/24 00:44:10;;;;;;;14.48;8.32;;;;;;;18.41;100.00;94275.81;5052070;28;20205;-64
2022/08/24 00:46:57;;;;;;;12.55;9.35;;;;;;;18.41;100.00;94272.41;5051870;28;20675;-61
2022/08/24 00:49:32;;;;;;;13.77;8.55;;;;;;;18.44;100.00;94278.03;5033930;28;20221;-64
2022/08/24 00:52:11;;;;;;;10.15;8.43;;;;;;;18.44;100.00;94280.59;5051689;28;20185;-61
2022/08/24 00:54:41;;;;;;;10.75;7.88;;;;;;;18.70;100.00;94284.34;5033819;28;20307;-61
2022/08/24 00:57:09;;;;;;;10.18;8.50;;;;;;;18.60;100.00;94273.59;5051456;28;20185;-61
2022/08/24 00:59:53;;;;;;;12.48;9.70;;;;;;;18.55;100.00;94281.06;5051685;28;20205;-61
2022/08/24 01:02:30;;;;;;;13.20;8.70;;;;;;;18.60;100.00;94283.88;5051401;28;20205;-61
2022/08/24 01:05:04;;;;;;;11.75;10.07;;;;;;;18.54;100.00;94289.78;5051302;28;20217;-62
2022/08/24 01:07:32;;;;;;;10.68;8.25;;;;;;;18.69;100.00;94286.13;5050154;28;20192;-61
2022/08/24 01:10:03;;;;;;;11.85;9.15;;;;;;;18.68;100.00;94296.63;5051714;28;20266;-61
2022/08/24 01:12:32;;;;;;;10.10;9.10;;;;;;;18.63;100.00;94291.22;5051424;28;20189;-64
2022/08/24 01:14:59;;;;;;;15.00;9.68;;;;;;;18.57;100.00;94300.50;5051628;28;20213;-62
2022/08/24 01:20:17;;;;;;;14.23;9.52;;;;;;;18.85;100.00;94303.06;5050798;28;20303;-60
2022/08/24 01:22:52;;;;;;;11.95;9.50;;;;;;;18.95;100.00;94313.81;5050919;28;20204;-65
2022/08/24 01:25:18;;;;;;;15.70;9.52;;;;;;;18.96;100.00;94311.09;5051357;28;20354;-65
2022/08/24 01:27:44;;;;;;;13.15;8.98;;;;;;;18.89;100.00;94306.84;5051287;28;20189;-65
2022/08/24 01:30:12;;;;;;;13.90;9.95;;;;;;;18.81;100.00;94309.56;5051247;28;20682;-62
2022/08/24 01:32:39;;;;;;;12.60;9.93;;;;;;;18.76;100.00;94304.19;5051047;28;20568;-62
2022/08/24 01:35:05;;;;;;;14.77;9.05;;;;;;;18.74;100.00;94311.31;5033174;28;20299;-64
2022/08/24 01:37:31;;;;;;;14.38;11.15;;;;;;;18.66;100.00;94316.63;5050983;28;20178;-64
2022/08/24 01:40:00;;;;;;;21.13;11.10;;;;;;;18.58;100.00;94316.75;5051216;28;20302;-61
2022/08/24 01:42:28;;;;;;;12.95;10.48;;;;;;;18.40;100.00;94312.03;5050825;28;20193;-61
2022/08/24 01:44:53;;;;;;;14.05;9.88;;;;;;;18.49;100.00;94318.66;5049763;28;20228;-64
2022/08/24 01:47:19;;;;;;;14.50;10.18;;;;;;;18.54;100.00;94315.53;5050998;28;20182;-62
2022/08/24 01:49:47;;;;;;;13.27;9.90;;;;;;;18.43;100.00;94317.63;5032864;28;20236;-61
2022/08/24 01:52:17;;;;;;;15.48;11.65;;;;;;;18.39;100.00;94313.81;5050828;28;20178;-60
2022/08/24 01:54:43;;;;;;;14.52;10.32;;;;;;;18.37;100.00;94310.63;5051295;28;20646;-61
2022/08/24 01:57:09;;;;;;;22.00;14.20;;;;;;;18.46;100.00;94315.66;5050859;28;20643;-61
2022/08/24 01:59:35;;;;;;;26.85;19.20;;;;;;;18.39;100.00;94316.38;5051136;28;20231;-63
2022/08/24 02:02:07;;;;;;;27.98;20.25;;;;;;;18.27;100.00;94315.28;5032937;28;20785;-63
2022/08/24 02:04:34;;;;;;;29.08;20.77;;;;;;;18.26;100.00;94321.41;5056982;22;20233;-60
2022/08/24 02:06:59;;;;;;;24.33;18.35;;;;;;;18.33;100.00;94324.84;5050622;28;20194;-61
2022/08/24 02:09:25;;;;;;;28.95;20.50;;;;;;;18.20;100.00;94318.78;5050558;28;20213;-62
2022/08/24 02:11:50;;;;;;;29.67;20.80;;;;;;;18.35;100.00;94320.31;5050754;28;20208;-65
2022/08/24 02:14:19;;;;;;;35.22;21.92;;;;;;;18.49;100.00;94328.94;5032677;28;20213;-62
2022/08/24 02:16:44;;;;;;;31.33;21.30;;;;;;;18.39;100.00;94331.00;5050615;28;20180;-65
2022/08/24 02:19:10;;;;;;;31.60;22.63;;;;;;;18.35;100.00;94334.94;5050762;28;20206;-61
2022/08/24 02:21:36;;;;;;;29.38;20.92;;;;;;;18.42;100.00;94339.16;5050597;28;20260;-64
2022/08/24 02:24:02;;;;;;;42.60;25.70;;;;;;;18.22;100.00;94356.19;5050975;28;20201;-61
2022/08/24 02:26:27;;;;;;;37.13;24.80;;;;;;;18.20;100.00;94344.50;5050579;28;20213;-62
2022/08/24 02:28:53;;;;;;;37.95;24.65;;;;;;;18.35;100.00;94346.03;5032403;28;20259;-62
2022/08/24 02:31:18;;;;;;;38.13;24.98;;;;;;;18.52;100.00;94345.81;5050282;28;20205;-62
2022/08/24 02:33:44;;;;;;;57.40;27.73;;;;;;;18.26;100.00;94344.56;5053568;28;20296;-62
2022/08/24 02:36:10;;;;;;;66.93;27.63;;;;;;;18.05;100.00;94347.13;5053860;28;20209;-62
2022/08/24 02:38:36;;;;;;;57.25;27.20;;;;;;;18.04;100.00;94345.53;5054088;28;20692;-62
2022/08/24 02:41:02;;;;;;;44.10;27.73;;;;;;;17.94;100.00;94342.44;5053932;28;20265;-62
2022/08/24 02:43:27;;;;;;;59.97;29.67;;;;;;;18.00;100.00;94344.31;5053957;28;20205;-62
2022/08/24 02:45:53;;;;;;;44.13;27.17;;;;;;;18.11;100.00;94346.41;5035848;28;20197;-62
2022/08/24 02:48:19;;;;;;;44.08;29.27;;;;;;;18.01;100.00;94339.97;5062270;22;20189;-61
2022/08/24 02:50:48;;;;;;;46.58;29.52;;;;;;;18.06;100.00;94345.38;5051623;28;20290;-62
2022/08/24 02:53:16;;;;;;;47.53;28.73;;;;;;;18.08;100.00;94351.91;5053494;28;20182;-61
2022/08/24 02:55:43;;;;;;;39.17;26.13;;;;;;;18.04;100.00;94353.25;5052268;28;20228;-65
2022/08/24 02:58:10;;;;;;;34.65;24.30;;;;;;;18.03;100.00;94348.28;5053559;28;20189;-61
2022/08/24 03:00:37;;;;;;;37.25;23.27;;;;;;;17.93;100.00;94346.03;5053641;28;20181;-62
2022/08/24 03:03:03;;;;;;;36.10;23.77;;;;;;;17.83;100.00;94348.09;5053446;28;20193;-62
2022/08/24 03:05:29;;;;;;;40.72;24.60;;;;;;;17.77;100.00;94348.81;5053583;28;20680;-62
2022/08/24 03:07:56;;;;;;;33.97;22.50;;;;;;;17.80;100.00;94353.56;5053399;28;20235;-62
2022/08/24 03:10:22;;;;;;;38.55;22.73;;;;;;;17.83;100.00;94355.81;5053365;28;20625;-62
2022/08/24 03:12:49;;;;;;;32.40;22.23;;;;;;;17.87;100.00;94345.94;5053349;28;20193;-61
2022/08/24 03:15:15;;;;;;;29.73;21.75;;;;;;;17.89;100.00;94343.97;5053209;28;20220;-62
2022/08/24 03:17:42;;;;;;;28.00;20.83;;;;;;;17.97;100.00;94349.81;5053161;28;20185;-62
2022/08/24 03:20:12;;;;;;;29.75;20.75;;;;;;;18.14;100.00;94340.88;5052962;28;20594;-63
2022/08/24 03:22:39;;;;;;;30.52;21.35;;;;;;;18.17;100.00;94348.25;5051763;28;20651;-62
2022/08/24 03:25:05;;;;;;;29.17;21.10;;;;;;;18.15;100.00;94342.47;5053059;28;20403;-62
2022/08/24 03:27:31;;;;;;;27.88;20.75;;;;;;;18.17;100.00;94350.81;5053001;28;20189;-62
2022/08/24 03:29:56;;;;;;;28.10;20.13;;;;;;;18.27;100.00;94356.47;5035502;28;20602;-65
2022/08/24 03:32:22;;;;;;;26.30;19.80;;;;;;;18.39;100.00;94343.88;5035246;28;20213;-62
2022/08/24 03:34:48;;;;;;;23.45;18.52;;;;;;;18.48;100.00;94354.88;5052992;28;20601;-62
2022/08/24 03:37:15;;;;;;;25.00;19.52;;;;;;;18.63;100.00;94355.59;5052804;28;20192;-61
2022/08/24 03:39:40;;;;;;;23.75;18.67;;;;;;;18.50;100.00;94358.06;5052700;28;20220;-61
2022/08/24 03:42:06;;;;;;;28.33;20.63;;;;;;;18.44;100.00;94357.03;5052774;28;20185;-62
2022/08/24 03:44:32;;;;;;;24.23;18.10;;;;;;;18.47;100.00;94363.56;5033804;28;20292;-61
2022/08/24 03:46:57;;;;;;;25.30;18.30;;;;;;;18.35;100.00;94358.91;5052801;28;20566;-60
2022/08/24 03:49:23;;;;;;;21.95;17.98;;;;;;;18.32;100.00;94358.50;5034626;28;20244;-61
2022/08/24 03:51:49;;;;;;;25.73;18.55;;;;;;;18.31;100.00;94351.72;5052463;28;20182;-60
2022/08/24 03:54:15;;;;;;;22.60;17.88;;;;;;;18.37;100.00;94359.53;5052738;28;20325;-61
2022/08/24 03:56:40;;;;;;;21.58;16.92;;;;;;;18.29;100.00;94361.41;5052763;28;20273;-61
2022/08/24 03:59:08;;;;;;;19.08;12.85;;;;;;;18.51;100.00;94365.59;5052711;28;20213;-61
2022/08/24 04:01:33;;;;;;;19.67;14.57;;;;;;;18.93;100.00;94364.75;5052639;28;20181;-62
2022/08/24 04:03:59;;;;;;;17.00;12.73;;;;;;;19.01;100.00;94369.75;5034487;28;20219;-62
2022/08/24 04:06:25;;;;;;;17.45;13.68;;;;;;;19.00;100.00;94363.81;5052528;28;20181;-61
2022/08/24 04:08:52;;;;;;;17.15;13.15;;;;;;;19.25;100.00;94366.75;5052662;28;20217;-61
2022/08/24 04:11:21;;;;;;;17.30;13.88;;;;;;;19.26;100.00;94371.72;5052375;28;20186;-61
2022/08/24 04:13:48;;;;;;;19.13;13.90;;;;;;;19.34;100.00;94370.00;5052624;28;20340;-61
2022/08/24 04:16:16;;;;;;;20.15;15.02;;;;;;;19.29;100.00;94370.53;5052479;28;20185;-61
2022/08/24 04:18:43;;;;;;;17.65;13.95;;;;;;;19.48;100.00;94366.50;5052478;28;20296;-62
2022/08/24 04:21:20;;;;;;;36.88;21.13;;;;;;;19.45;100.00;94364.31;5052404;28;20197;-62
2022/08/24 04:23:47;;;;;;;36.15;21.23;;;;;;;19.53;100.00;94375.28;5034415;28;20228;-61
2022/08/24 04:26:14;;;;;;;17.65;12.25;;;;;;;19.55;100.00;94375.09;5052162;28;20702;-62
2022/08/24 04:28:39;;;;;;;18.00;12.40;;;;;;;19.62;100.00;94376.69;5052086;28;20679;-69
2022/08/24 04:31:06;;;;;;;12.60;11.27;;;;;;;19.71;100.00;94378.16;5034410;28;20184;-68
2022/08/24 04:33:31;;;;;;;27.63;17.80;;;;;;;19.75;100.00;94383.72;5052247;28;20217;-67
2022/08/24 04:35:57;;;;;;;20.70;13.45;;;;;;;19.79;100.00;94388.31;5051748;28;20196;-65
2022/08/24 04:38:24;;;;;;;13.70;10.90;;;;;;;19.79;100.00;94383.13;5051971;28;20193;-67
2022/08/24 04:43:34;;;;;;;15.48;10.07;;;;;;;19.55;100.00;94378.47;5051888;28;20578;-68
2022/08/24 04:46:04;;;;;;;15.48;10.57;;;;;;;19.61;100.00;94382.88;5051764;28;20250;-67
2022/08/24 04:48:30;;;;;;;11.30;9.30;;;;;;;19.56;100.00;94392.94;5051500;28;20210;-67
2022/08/24 04:51:01;;;;;;;11.65;8.80;;;;;;;19.46;100.00;94392.50;5051886;28;20628;-63
2022/08/24 04:53:27;;;;;;;10.82;9.15;;;;;;;19.65;100.00;94399.56;5051542;28;20213;-62
2022/08/24 04:55:52;;;;;;;11.70;9.32;;;;;;;19.56;100.00;94386.97;5051466;28;20208;-63
2022/08/24 04:58:18;;;;;;;12.25;8.98;;;;;;;19.44;100.00;94380.75;5051742;28;20650;-62
2022/08/24 05:00:45;;;;;;;11.23;9.32;;;;;;;19.37;100.00;94365.28;5051569;28;20688;-61
2022/08/24 05:03:10;;;;;;;12.27;9.80;;;;;;;19.38;100.00;94368.63;5051660;28;20185;-62
2022/08/24 05:05:41;;;;;;;11.25;10.02;;;;;;;19.53;100.00;94380.44;5051539;28;20679;-62
2022/08/24 05:08:07;;;;;;;12.57;10.20;;;;;;;19.57;100.00;94380.84;5051443;28;20192;-62
2022/08/24 05:10:32;;;;;;;11.52;8.30;;;;;;;19.58;100.00;94378.06;5051379;28;20308;-62
2022/08/24 05:12:58;;;;;;;10.52;8.40;;;;;;;19.45;100.00;94382.38;5051627;28;20657;-62
2022/08/24 05:15:24;;;;;;;8.77;7.75;;;;;;;19.64;100.00;94374.72;5051374;28;20647;-61
2022/08/24 05:17:49;;;;;;;10.77;7.60;;;;;;;19.69;100.00;94392.22;5051521;28;20196;-62
2022/08/24 05:20:16;;;;;;;11.13;7.93;;;;;;;19.76;100.00;94380.13;5033294;28;20209;-61
2022/08/24 05:22:41;;;;;;;12.20;8.75;;;;;;;19.66;100.00;94370.16;5051264;28;20267;-62
2022/08/24 05:25:07;;;;;;;15.25;8.20;;;;;;;19.68;100.00;94370.78;5051245;28;20288;-62
2022/08/24 05:27:33;;;;;;;9.35;7.18;;;;;;;19.66;100.00;94395.97;5050950;28;20257;-62
2022/08/24 05:29:59;;;;;;;9.52;7.78;;;;;;;19.67;100.00;94382.09;5032934;28;20312;-62
2022/08/24 05:32:24;;;;;;;10.90;7.95;;;;;;;19.62;100.00;94381.84;5051169;28;20212;-62
2022/08/24 05:34:50;;;;;;;9.00;7.75;;;;;;;19.32;100.00;94369.38;5033419;28;20215;-66
2022/08/24 05:37:15;;;;;;;7.80;6.63;;;;;;;19.31;100.00;94360.06;5051169;28;20185;-66
2022/08/24 05:39:41;;;;;;;13.75;7.53;;;;;;;19.35;100.00;94372.41;5051564;28;20216;-62
2022/08/24 05:42:06;;;;;;;9.27;7.45;;;;;;;19.37;100.00;94367.84;5051090;28;20192;-60
2022/08/24 05:44:32;;;;;;;11.55;7.78;;;;;;;19.33;100.00;94373.53;5051587;28;20285;-62
2022/08/24 05:46:58;;;;;;;9.10;6.85;;;;;;;19.36;100.00;94363.69;5033223;28;20189;-65
2022/08/24 05:49:24;;;;;;;8.98;7.40;;;;;;;19.40;100.00;94359.72;5051056;28;20213;-60
2022/08/24 05:51:50;;;;;;;7.70;6.90;;;;;;;19.66;100.00;94365.00;5033281;28;20651;-61
2022/08/24 05:54:16;;;;;;;10.05;5.90;;;;;;;19.85;100.00;94382.38;5051022;28;20717;-61
2022/08/24 05:56:42;;;;;;;10.05;7.78;;;;;;;20.24;100.00;94412.69;5033077;28;20298;-61
2022/08/24 05:59:08;;;;;;;14.35;7.97;;;;;;;20.40;100.00;94409.75;5050807;28;20298;-65
2022/08/24 06:01:34;;;;;;;8.10;6.03;;;;;;;20.56;100.00;94399.06;5033146;28;20235;-62
2022/08/24 06:03:59;;;;;;;13.55;7.15;;;;;;;20.88;100.00;94418.97;5051207;28;20318;-62
2022/08/24 06:06:25;;;;;;;8.18;5.75;;;;;;;21.15;100.00;94430.13;5034571;28;20677;-61
2022/08/24 06:08:54;;;;;;;9.65;6.00;;;;;;;21.46;100.00;94447.63;5057269;28;20236;-61
2022/08/24 06:11:23;;;;;;;8.70;6.57;;;;;;;21.56;100.00;94453.19;5039740;28;20598;-61
2022/08/24 06:13:51;;;;;;;9.23;6.13;;;;;;;21.64;100.00;94446.00;5057575;28;20221;-61
2022/08/24 06:16:23;;;;;;;11.30;7.70;;;;;;;21.70;100.00;94421.91;5057389;28;20582;-67
2022/08/24 06:18:51;;;;;;;8.30;6.65;;;;;;;21.62;100.00;94391.06;5039323;28;20236;-65
2022/08/24 06:21:22;;;;;;;11.23;7.78;;;;;;;21.96;100.00;94364.09;5039447;28;20208;-66
2022/08/24 06:23:49;;;;;;;9.30;6.70;;;;;;;22.13;100.00;94388.53;5057515;28;20220;-65
2022/08/24 06:29:00;;;;;;;11.45;7.45;;;;;;;22.14;100.00;94410.03;5057558;28;20808;-65
2022/08/24 06:31:26;;;;;;;9.73;6.78;;;;;;;22.29;100.00;94439.03;5057274;28;20650;-61
2022/08/24 06:33:53;;;;;;;10.93;7.05;;;;;;;21.98;100.00;94457.13;5057323;28;20747;-59
2022/08/24 06:36:20;;;;;;;9.75;6.30;;;;;;;21.91;100.00;94414.91;5057114;28;20185;-63
2022/08/24 06:38:46;;;;;;;13.02;7.53;;;;;;;22.03;100.00;94424.41;5057220;28;20201;-61
2022/08/24 06:41:11;;;;;;;10.20;6.20;;;;;;;22.06;100.00;94431.75;5057100;28;20197;-65
2022/08/24 06:43:37;;;;;;;7.15;5.80;;;;;;;22.24;100.00;94451.84;5038964;28;20205;-62
2022/08/24 06:46:03;;;;;;;11.30;6.75;;;;;;;22.18;100.00;94466.38;5039189;28;20647;-61
2022/08/24 06:48:32;;;;;;;6.55;5.88;;;;;;;22.22;100.00;94446.06;5056987;28;20201;-62
2022/08/24 06:50:58;;;;;;;8.98;6.75;;;;;;;22.46;100.00;94464.25;5057032;28;20272;-66
2022/08/24 06:53:25;;;;;;;9.55;6.57;;;;;;;22.47;100.00;94493.56;5039000;28;20193;-64
2022/08/24 06:56:01;;;;;;;10.00;7.53;;;;;;;22.31;100.00;94468.13;5039027;28;20185;-64
2022/08/24 06:58:30;;;;;;;7.75;6.50;;;;;;;22.46;100.00;94481.63;5056938;28;20259;-65
2022/08/24 07:00:56;;;;;;;8.93;5.75;;;;;;;22.54;100.00;94473.63;5038825;28;20209;-65
2022/08/24 07:03:22;;;;;;;6.82;5.78;;;;;;;22.64;100.00;94499.09;5056889;28;20277;-64
2022/08/24 07:05:57;;;;;;;7.53;6.68;;;;;;;22.48;100.00;94484.81;5056781;28;20351;-64
2022/08/24 07:08:23;;;;;;;6.63;5.57;;;;;;;22.58;100.00;94485.19;5038709;28;20731;-65
2022/08/24 07:10:50;;;;;;;7.72;6.05;;;;;;;22.67;100.00;94489.13;5038735;28;20193;-65
2022/08/24 07:13:16;;;;;;;6.25;5.65;;;;;;;22.92;100.00;94492.56;5056759;28;20272;-63
2022/08/24 07:15:43;;;;;;;7.82;5.50;;;;;;;22.90;100.00;94496.38;5056631;28;20256;-64
2022/08/24 07:18:13;;;;;;;9.23;6.22;;;;;;;23.03;100.00;94510.03;5055908;28;20205;-64
2022/08/24 07:20:38;;;;;;;5.50;4.85;;;;;;;22.96;100.00;94531.84;5053332;28;20670;-61
2022/08/24 07:23:05;;;;;;;7.97;4.93;;;;;;;22.96;100.00;94498.94;5053253;28;20220;-60
2022/08/24 07:25:32;;;;;;;6.18;5.22;;;;;;;22.99;100.00;94514.06;5035289;28;20241;-65
2022/08/24 07:27:59;;;;;;;8.13;4.88;;;;;;;22.86;100.00;94529.72;5053105;28;20596;-60
2022/08/24 07:30:27;;;;;;;8.75;5.57;;;;;;;23.07;100.00;94511.22;5053007;28;20244;-60
2022/08/24 07:32:53;;;;;;;5.82;5.15;;;;;;;23.27;100.00;94522.25;5053048;28;20256;-61
2022/08/24 07:35:19;;;;;;;6.80;5.15;;;;;;;23.45;100.00;94502.59;5059336;22;20255;-60
2022/08/24 07:37:44;;;;;;;8.45;5.18;;;;;;;23.39;100.00;94540.59;5052797;28;20178;-61
2022/08/24 07:40:11;;;;;;;6.78;4.93;;;;;;;23.58;100.00;94518.06;5035000;28;20221;-61
2022/08/24 07:42:38;;;;;;;9.05;5.10;;;;;;;23.79;100.00;94551.44;5052991;28;20181;-62
2022/08/24 07:45:04;;;;;;;6.40;5.18;;;;;;;23.81;100.00;94560.59;5052784;28;20689;-62
2022/08/24 07:47:30;;;;;;;7.35;4.47;;;;;;;23.78;100.00;94602.56;5053132;28;20190;-63
2022/08/24 07:49:55;;;;;;;4.90;4.40;;;;;;;23.63;100.00;94576.13;5052991;28;20209;-61
2022/08/24 07:52:21;;;;;;;7.45;4.88;;;;;;;23.75;100.00;94565.84;5052886;28;20189;-62
2022/08/24 07:54:46;;;;;;;5.65;4.70;;;;;;;23.75;100.00;94600.41;5052708;28;20730;-60
2022/08/24 07:57:12;;;;;;;5.13;4.63;;;;;;;23.64;100.00;94574.31;5052773;28;20554;-60
2022/08/24 07:59:37;;;;;;;6.50;5.00;;;;;;;23.57;100.00;94582.19;5052947;28;20209;-61
2022/08/24 08:02:04;;;;;;;4.50;4.10;;;;;;;23.45;100.00;94528.56;5034829;28;20192;-60
2022/08/24 08:04:30;;;;;;;6.60;4.72;;;;;;;23.45;100.00;94513.78;5052570;28;20217;-61
2022/08/24 08:06:56;;;;;;;5.10;4.60;;;;;;;23.64;100.00;94543.97;5052665;28;20193;-61
2022/08/24 08:09:21;;;;;;;6.22;4.72;;;;;;;23.74;100.00;94551.25;5052500;28;20244;-60
2022/08/24 08:11:48;;;;;;;5.00;4.13;;;;;;;23.77;100.00;94488.53;5035069;28;20255;-60
2022/08/24 08:14:13;;;;;;;4.78;4.38;;;;;;;23.93;100.00;94511.34;5052574;28;20206;-64
2022/08/24 08:16:40;;;;;;;7.32;4.82;;;;;;;23.86;100.00;94586.72;5052505;28;20188;-60
2022/08/24 08:19:06;;;;;;;5.15;4.30;;;;;;;23.87;100.00;94531.19;5052422;28;20672;-60
2022/08/24 08:24:16;;;;;;;4.70;4.28;;;;;;;24.09;100.00;94547.19;5052928;28;20220;-61
2022/08/24 08:26:49;;;;;;;6.25;4.72;;;;;;;24.05;100.00;94548.63;5052242;28;20181;-62
2022/08/24 08:29:17;;;;;;;6.00;5.40;;;;;;;24.02;100.00;94559.41;5033992;28;20271;-62
2022/08/24 08:31:42;;;;;;;5.63;5.07;;;;;;;23.97;100.00;94548.88;5051937;28;20621;-61
2022/08/24 08:34:09;;;;;;;5.30;4.80;;;;;;;24.04;100.00;94545.22;5052401;28;20213;-61
2022/08/24 08:36:38;;;;;;;5.53;5.03;;;;;;;24.06;100.00;94521.63;5052238;28;20624;-60
2022/08/24 08:39:04;;;;;;;6.43;4.30;;;;;;;23.96;100.00;94536.88;5052339;28;20201;-60
2022/08/24 08:42:13;;;;;;;6.10;4.55;;;;;;;23.61;100.00;94531.44;5051954;28;20287;-61
2022/08/24 08:44:54;;;;;;;6.63;5.07;;;;;;;24.04;100.00;94532.25;5034093;28;20736;-60
2022/08/24 08:47:22;;;;;;;4.90;4.20;;;;;;;24.21;100.00;94570.66;5051992;28;20192;-61
2022/08/24 08:50:24;;;;;;;5.10;4.00;;;;;;;24.28;100.00;94577.34;5051613;28;20637;-61
2022/08/24 08:53:27;;;;;;;4.70;4.30;;;;;;;24.43;100.00;94585.63;5051846;28;20268;-61
2022/08/24 08:56:18;;;;;;;5.03;3.45;;;;;;;24.63;100.00;94580.19;5051770;28;20207;-63
2022/08/24 08:59:06;;;;;;;4.68;3.95;;;;;;;24.70;100.00;94596.53;5051739;28;20202;-59
2022/08/24 09:01:49;;;;;;;5.88;4.03;;;;;;;24.18;100.00;94575.28;5051623;28;20594;-63
2022/08/24 09:04:51;;;;;;;4.65;4.20;;;;;;;24.48;100.00;94596.19;5051607;28;20233;-62
2022/08/24 09:07:19;;;;;;;4.70;3.75;;;;;;;24.52;100.00;94601.72;5033836;28;20202;-62
2022/08/24 09:09:45;;;;;;;5.47;4.13;;;;;;;24.65;100.00;94588.56;5051568;28;20275;-61
2022/08/24 09:12:34;;;;;;;6.05;3.90;;;;;;;24.84;98.55;94665.63;5051940;28;20181;-63
2022/08/24 09:15:27;;;;;;;4.80;3.90;;;;;;;24.95;100.00;94584.22;4995726;28;20677;-61
2022/08/24 09:18:11;;;;;;;6.93;4.25;;;;;;;25.10;100.00;94581.25;5051590;28;20193;-61
2022/08/24 09:20:45;;;;;;;6.13;4.57;;;;;;;25.39;99.69;94628.09;5051465;28;20205;-62
2022/08/24 09:23:34;;;;;;;8.57;4.30;;;;;;;25.38;84.42;94712.44;5051484;28;20219;-62
2022/08/24 09:26:15;;;;;;;4.38;3.70;;;;;;;25.31;83.26;94675.25;5051328;28;20186;-63
2022/08/24 09:28:51;;;;;;;5.10;3.80;;;;;;;25.30;88.43;94585.19;5051372;28;20216;-62
2022/08/24 09:31:44;;;;;;;5.22;4.10;;;;;;;25.49;84.02;94664.06;5033510;28;20197;-63
2022/08/24 09:34:28;;;;;;;5.75;4.57;;;;;;;25.65;87.42;94573.06;5033325;28;20210;-63
2022/08/24 09:36:56;;;;;;;5.25;3.90;;;;;;;25.67;83.49;94656.19;5051244;28;20264;-61
2022/08/24 09:39:45;;;;;;;5.20;4.38;;;;;;;25.28;84.24;94622.84;5051117;28;20209;-61
2022/08/24 09:42:49;;;;;;;5.82;4.03;;;;;;;25.44;86.22;94568.38;5032105;28;20177;-61
2022/08/24 09:45:33;;;;;;;5.05;4.43;;;;;;;25.52;83.42;94619.34;4951308;29;20232;-62
2022/08/24 09:48:35;;;;;;;6.38;4.93;;;;;;;25.12;82.86;94621.66;4951052;29;20201;-63
2022/08/24 09:51:35;;;;;;;7.43;4.18;;;;;;;24.60;83.78;94591.84;5034972;28;20792;-61
2022/08/24 09:54:16;;;;;;;4.50;4.10;;;;;;;25.02;83.46;94595.38;5033107;28;20217;-63
2022/08/24 09:57:03;;;;;;;6.40;4.07;;;;;;;25.17;82.71;94608.78;5051156;28;20193;-62
2022/08/24 09:59:58;;;;;;;5.63;4.25;;;;;;;25.36;81.03;94625.13;5051067;28;20278;-63
2022/08/24 10:02:40;;;;;;;5.10;4.45;;;;;;;25.90;84.43;94551.25;4962802;28;20683;-64
2022/08/24 10:05:27;;;;;;;6.88;4.00;;;;;;;26.31;83.86;94567.56;5033039;28;20719;-62
2022/08/24 10:08:11;;;;;;;9.10;3.50;;;;;;;26.65;76.68;94701.56;5033235;28;20177;-61
2022/08/24 10:10:48;;;;;;;4.68;4.00;;;;;;;26.70;74.51;94680.81;5050552;28;20295;-61
2022/08/24 10:13:29;;;;;;;3.70;3.40;;;;;;;27.05;75.60;94632.00;5050662;28;20551;-64
2022/08/24 10:16:23;;;;;;;4.50;3.47;;;;;;;27.17;65.90;94741.63;5050437;28;20193;-64
2022/08/24 10:19:00;;;;;;;5.10;3.53;;;;;;;27.03;66.24;94688.84;5050555;28;20765;-63
2022/08/24 10:21:28;;;;;;;4.47;3.75;;;;;;;27.19;71.04;94594.16;5032929;28;20292;-62
2022/08/24 10:24:00;;;;;;;9.27;4.60;;;;;;;27.53;69.89;94612.56;5032785;28;20315;-63
2022/08/24 10:26:49;;;;;;;13.95;10.15;;;;;;;28.03;70.84;94589.88;5050871;28;20213;-64
2022/08/24 10:29:51;;;;;;;5.38;4.57;;;;;;;28.35;67.15;94668.53;5050807;28;20225;-61
2022/08/24 10:32:49;;;;;;;5.75;3.95;;;;;;;28.60;66.99;94668.97;5050469;28;20181;-65
2022/08/24 10:35:21;;;;;;;4.97;4.03;;;;;;;28.62;64.26;94706.16;5032511;28;20209;-62
2022/08/24 10:41:14;;;;;;;5.00;3.70;;;;;;;28.57;63.11;94717.31;5050351;28;20209;-66
2022/08/24 10:44:15;;;;;;;6.90;4.05;;;;;;;29.06;62.26;94723.53;5050383;28;20217;-62
2022/08/24 10:46:52;;;;;;;6.45;4.03;;;;;;;28.36;62.86;94706.78;5028977;28;20216;-60
2022/08/24 10:49:35;;;;;;;3.80;3.50;;;;;;;28.93;63.02;94688.00;5050642;28;20229;-62
2022/08/24 10:52:37;;;;;;;3.97;3.65;;;;;;;29.20;60.14;94752.81;5050521;28;20197;-60
2022/08/24 10:55:24;;;;;;;5.35;4.47;;;;;;;29.39;59.72;94756.72;5035676;28;20221;-62
2022/08/24 10:58:16;;;;;;;5.47;4.32;;;;;;;29.43;59.99;94731.63;5053527;28;20327;-60
2022/08/24 11:00:42;;;;;;;3.92;3.40;;;;;;;29.80;61.75;94683.56;5053601;28;20190;-62
2022/08/24 11:03:22;;;;;;;6.07;3.85;;;;;;;29.46;62.46;94663.00;5035312;28;20697;-62
2022/08/24 11:05:53;;;;;;;10.63;4.20;;;;;;;29.19;64.45;94618.41;5035661;28;20727;-61
2022/08/24 11:08:23;;;;;;;6.72;3.88;;;;;;;29.05;63.38;94638.13;5053559;28;20563;-63
2022/08/24 11:11:21;;;;;;;7.60;4.07;;;;;;;28.77;64.92;94601.66;5053544;28;20254;-61
2022/08/24 11:14:22;;;;;;;7.78;4.68;;;;;;;28.74;65.85;94570.75;5054120;28;20740;-63
2022/08/24 11:16:47;;;;;;;6.22;4.10;;;;;;;29.08;65.66;94589.72;5021933;28;20200;-64
2022/08/24 11:19:30;;;;;;;5.10;4.15;;;;;;;29.45;64.47;94615.03;5035184;28;20214;-63
2022/08/24 11:22:01;;;;;;;4.82;4.18;;;;;;;29.64;61.25;94684.41;5035425;28;20584;-62
2022/08/24 11:24:43;;;;;;;4.60;4.10;;;;;;;29.63;60.69;94674.19;5053313;28;20209;-63
2022/08/24 11:27:15;;;;;;;6.35;3.72;;;;;;;29.65;62.33;94636.22;5053239;28;20194;-64
2022/08/24 11:29:53;;;;;;;5.38;3.90;;;;;;;29.87;66.82;94533.13;5053193;28;20218;-62
2022/08/24 11:32:42;;;;;;;6.57;4.20;;;;;;;29.82;63.92;94605.44;5053058;28;20190;-63
2022/08/24 11:35:26;;;;;;;7.88;3.95;;;;;;;30.08;61.01;94669.38;5035157;28;20295;-61
2022/08/24 11:38:02;;;;;;;5.57;4.15;;;;;;;29.85;61.72;94640.88;5053080;28;20257;-62
2022/08/24 11:40:33;;;;;;;6.78;4.30;;;;;;;29.27;61.06;94654.66;5052821;28;20216;-63
2022/08/24 11:43:13;;;;;;;10.18;4.38;;;;;;;28.92;65.31;94555.53;5053002;28;20193;-64
2022/08/24 11:46:17;;;;;;;6.82;4.25;;;;;;;28.59;67.71;94500.69;5062826;22;20647;-62
2022/08/24 11:49:04;;;;;;;8.85;4.38;;;;;;;29.18;66.37;94529.63;5053118;28;20209;-62
2022/08/24 11:51:36;;;;;;;5.75;4.43;;;;;;;29.32;63.65;94578.75;5053131;28;20186;-62